<?xml version="1.0" encoding="UTF-8" standalone="no" ?>
<gpx xmlns="http://www.topografix.com/GPX/1/1" xmlns:xsi="http://www.w3.org/2001/XMLSchema-instance" xsi:schemaLocation="http://www.topografix.com/GPX/1/1 http://www.topografix.com/GPX/1/1/gpx.xsd" version="1.1" creator="VisuGPX - https://www.visugpx.com">
  <metadata>
    <name>Rando Soco Chatel 2017</name>
    <desc><![CDATA[Rando du samedi 23/09 depuis Prétairié 1140m jusqu'au col de Tavaneuse 1997m
]]></desc>
  </metadata>
  <trk>
    <name><![CDATA[Rando Soco Chatel 2017_1]]></name>
    <trkseg>
      <trkpt lat="46.25042" lon="6.72162">
        <ele>1139</ele>
      </trkpt>
      <trkpt lat="46.25035" lon="6.72167">
        <ele>1139</ele>
      </trkpt>
      <trkpt lat="46.25015" lon="6.72175">
        <ele>1140</ele>
      </trkpt>
      <trkpt lat="46.24999" lon="6.72178">
        <ele>1144</ele>
      </trkpt>
      <trkpt lat="46.2498" lon="6.72181">
        <ele>1146</ele>
      </trkpt>
      <trkpt lat="46.24962" lon="6.72185">
        <ele>1149</ele>
      </trkpt>
      <trkpt lat="46.24943" lon="6.72188">
        <ele>1151</ele>
        <time>2017-09-23T07:47:52Z</time>
      </trkpt>
      <trkpt lat="46.24924" lon="6.72192">
        <ele>1152</ele>
      </trkpt>
      <trkpt lat="46.2491" lon="6.72204">
        <ele>1161</ele>
      </trkpt>
      <trkpt lat="46.24898" lon="6.72219">
        <ele>1161</ele>
      </trkpt>
      <trkpt lat="46.24878" lon="6.7222">
        <ele>1163</ele>
        <time>2017-09-23T07:49:17Z</time>
      </trkpt>
      <trkpt lat="46.2486" lon="6.72223">
        <ele>1165</ele>
      </trkpt>
      <trkpt lat="46.24842" lon="6.72216">
        <ele>1166</ele>
      </trkpt>
      <trkpt lat="46.24822" lon="6.72205">
        <ele>1180</ele>
      </trkpt>
      <trkpt lat="46.24807" lon="6.72185">
        <ele>1181</ele>
      </trkpt>
      <trkpt lat="46.24796" lon="6.7216">
        <ele>1183</ele>
      </trkpt>
      <trkpt lat="46.2479" lon="6.72134">
        <ele>1184</ele>
      </trkpt>
      <trkpt lat="46.24784" lon="6.72117">
        <ele>1185</ele>
      </trkpt>
      <trkpt lat="46.24785" lon="6.72106">
        <ele>1185</ele>
        <time>2017-09-23T07:52:26Z</time>
      </trkpt>
      <trkpt lat="46.24789" lon="6.72083">
        <ele>1187</ele>
      </trkpt>
      <trkpt lat="46.24793" lon="6.72057">
        <ele>1188</ele>
      </trkpt>
      <trkpt lat="46.24799" lon="6.7203">
        <ele>1188</ele>
        <time>2017-09-23T07:53:32Z</time>
      </trkpt>
      <trkpt lat="46.248" lon="6.72005">
        <ele>1189</ele>
      </trkpt>
      <trkpt lat="46.24806" lon="6.71979">
        <ele>1193</ele>
        <time>2017-09-23T07:54:14Z</time>
      </trkpt>
      <trkpt lat="46.24809" lon="6.71955">
        <ele>1193</ele>
      </trkpt>
      <trkpt lat="46.24811" lon="6.71928">
        <ele>1193</ele>
      </trkpt>
      <trkpt lat="46.24811" lon="6.71904">
        <ele>1198</ele>
      </trkpt>
      <trkpt lat="46.24805" lon="6.71884">
        <ele>1200</ele>
      </trkpt>
      <trkpt lat="46.24797" lon="6.71855">
        <ele>1202</ele>
      </trkpt>
      <trkpt lat="46.24797" lon="6.71828">
        <ele>1212</ele>
        <time>2017-09-23T07:56:25Z</time>
      </trkpt>
      <trkpt lat="46.24772" lon="6.71822">
        <ele>1212</ele>
      </trkpt>
      <trkpt lat="46.2476" lon="6.71809">
        <ele>1214</ele>
      </trkpt>
      <trkpt lat="46.24746" lon="6.71791">
        <ele>1221</ele>
      </trkpt>
      <trkpt lat="46.24732" lon="6.71775">
        <ele>1223</ele>
      </trkpt>
      <trkpt lat="46.24718" lon="6.71761">
        <ele>1224</ele>
      </trkpt>
      <trkpt lat="46.24701" lon="6.71746">
        <ele>1238</ele>
      </trkpt>
      <trkpt lat="46.24685" lon="6.71732">
        <ele>1239</ele>
      </trkpt>
      <trkpt lat="46.24674" lon="6.71715">
        <ele>1242</ele>
      </trkpt>
      <trkpt lat="46.24655" lon="6.71697">
        <ele>1251</ele>
      </trkpt>
      <trkpt lat="46.24638" lon="6.7168">
        <ele>1254</ele>
      </trkpt>
      <trkpt lat="46.24626" lon="6.71652">
        <ele>1269</ele>
      </trkpt>
      <trkpt lat="46.24628" lon="6.71627">
        <ele>1272</ele>
        <time>2017-09-23T08:02:52Z</time>
      </trkpt>
      <trkpt lat="46.24642" lon="6.71612">
        <ele>1274</ele>
      </trkpt>
      <trkpt lat="46.2466" lon="6.71605">
        <ele>1276</ele>
      </trkpt>
      <trkpt lat="46.24676" lon="6.71597">
        <ele>1278</ele>
      </trkpt>
      <trkpt lat="46.24693" lon="6.71591">
        <ele>1277</ele>
      </trkpt>
      <trkpt lat="46.24712" lon="6.71584">
        <ele>1279</ele>
        <time>2017-09-23T08:06:48Z</time>
      </trkpt>
      <trkpt lat="46.2473" lon="6.71575">
        <ele>1298</ele>
        <time>2017-09-23T08:07:49Z</time>
      </trkpt>
      <trkpt lat="46.24746" lon="6.71564">
        <ele>1299</ele>
        <time>2017-09-23T08:08:44Z</time>
      </trkpt>
      <trkpt lat="46.24762" lon="6.7155">
        <ele>1310</ele>
        <time>2017-09-23T08:09:28Z</time>
      </trkpt>
      <trkpt lat="46.24778" lon="6.71539">
        <ele>1314</ele>
        <time>2017-09-23T08:09:55Z</time>
      </trkpt>
      <trkpt lat="46.24797" lon="6.71543">
        <ele>1314</ele>
        <time>2017-09-23T08:10:39Z</time>
      </trkpt>
      <trkpt lat="46.24815" lon="6.71549">
        <ele>1313</ele>
        <time>2017-09-23T08:10:49Z</time>
      </trkpt>
      <trkpt lat="46.24833" lon="6.7154">
        <ele>1316</ele>
        <time>2017-09-23T08:12:02Z</time>
      </trkpt>
      <trkpt lat="46.24851" lon="6.7154">
        <ele>1323</ele>
        <time>2017-09-23T08:12:38Z</time>
      </trkpt>
      <trkpt lat="46.24869" lon="6.7154">
        <ele>1324</ele>
        <time>2017-09-23T08:13:28Z</time>
      </trkpt>
      <trkpt lat="46.24877" lon="6.71533">
        <ele>1325</ele>
      </trkpt>
      <trkpt lat="46.24867" lon="6.71514">
        <ele>1327</ele>
        <time>2017-09-23T08:14:39Z</time>
      </trkpt>
      <trkpt lat="46.24858" lon="6.71491">
        <ele>1342</ele>
        <time>2017-09-23T08:15:07Z</time>
      </trkpt>
      <trkpt lat="46.24844" lon="6.71474">
        <ele>1344</ele>
        <time>2017-09-23T08:15:30Z</time>
      </trkpt>
      <trkpt lat="46.2483" lon="6.71457">
        <ele>1342</ele>
        <time>2017-09-23T08:16:03Z</time>
      </trkpt>
      <trkpt lat="46.24824" lon="6.71432">
        <ele>1347</ele>
        <time>2017-09-23T08:16:28Z</time>
      </trkpt>
      <trkpt lat="46.24832" lon="6.71408">
        <ele>1354</ele>
        <time>2017-09-23T08:16:54Z</time>
      </trkpt>
      <trkpt lat="46.24834" lon="6.71386">
        <ele>1364</ele>
      </trkpt>
      <trkpt lat="46.24836" lon="6.71359">
        <ele>1367</ele>
      </trkpt>
      <trkpt lat="46.2484" lon="6.7133">
        <ele>1372</ele>
        <time>2017-09-23T08:18:28Z</time>
      </trkpt>
      <trkpt lat="46.24823" lon="6.71322">
        <ele>1369</ele>
        <time>2017-09-23T08:18:53Z</time>
      </trkpt>
      <trkpt lat="46.24822" lon="6.71312">
        <ele>1369</ele>
      </trkpt>
      <trkpt lat="46.24825" lon="6.71299">
        <ele>1370</ele>
      </trkpt>
      <trkpt lat="46.24833" lon="6.71277">
        <ele>1382</ele>
      </trkpt>
      <trkpt lat="46.24843" lon="6.71248">
        <ele>1387</ele>
        <time>2017-09-23T08:20:26Z</time>
      </trkpt>
      <trkpt lat="46.24845" lon="6.71222">
        <ele>1394</ele>
        <time>2017-09-23T08:20:58Z</time>
      </trkpt>
      <trkpt lat="46.2484" lon="6.71195">
        <ele>1397</ele>
      </trkpt>
      <trkpt lat="46.2484" lon="6.7117">
        <ele>1397</ele>
        <time>2017-09-23T08:21:57Z</time>
      </trkpt>
      <trkpt lat="46.24834" lon="6.71145">
        <ele>1409</ele>
      </trkpt>
      <trkpt lat="46.24831" lon="6.71137">
        <ele>1399</ele>
      </trkpt>
      <trkpt lat="46.24825" lon="6.71122">
        <ele>1401</ele>
        <time>2017-09-23T08:29:58Z</time>
      </trkpt>
      <trkpt lat="46.24818" lon="6.71094">
        <ele>1406</ele>
      </trkpt>
      <trkpt lat="46.24815" lon="6.71063">
        <ele>1416</ele>
      </trkpt>
      <trkpt lat="46.24813" lon="6.71038">
        <ele>1418</ele>
      </trkpt>
      <trkpt lat="46.2481" lon="6.71019">
        <ele>1421</ele>
      </trkpt>
      <trkpt lat="46.24803" lon="6.71003">
        <ele>1421</ele>
      </trkpt>
      <trkpt lat="46.24792" lon="6.7098">
        <ele>1431</ele>
      </trkpt>
      <trkpt lat="46.24786" lon="6.70969">
        <ele>1431</ele>
      </trkpt>
      <trkpt lat="46.24781" lon="6.70955">
        <ele>1432</ele>
      </trkpt>
      <trkpt lat="46.24777" lon="6.70945">
        <ele>1433</ele>
      </trkpt>
      <trkpt lat="46.24772" lon="6.70935">
        <ele>1433</ele>
      </trkpt>
      <trkpt lat="46.24764" lon="6.70931">
        <ele>1432</ele>
      </trkpt>
      <trkpt lat="46.24755" lon="6.70931">
        <ele>1431</ele>
      </trkpt>
      <trkpt lat="46.24746" lon="6.70926">
        <ele>1428</ele>
      </trkpt>
      <trkpt lat="46.24737" lon="6.70924">
        <ele>1427</ele>
      </trkpt>
      <trkpt lat="46.24726" lon="6.70924">
        <ele>1426</ele>
      </trkpt>
      <trkpt lat="46.24717" lon="6.70925">
        <ele>1426</ele>
      </trkpt>
      <trkpt lat="46.247" lon="6.70927">
        <ele>1426</ele>
      </trkpt>
      <trkpt lat="46.24689" lon="6.70924">
        <ele>1426</ele>
      </trkpt>
      <trkpt lat="46.24683" lon="6.70928">
        <ele>1426</ele>
        <time>2017-09-23T08:35:25Z</time>
      </trkpt>
      <trkpt lat="46.24677" lon="6.70931">
        <ele>1426</ele>
      </trkpt>
      <trkpt lat="46.24667" lon="6.70943">
        <ele>1434</ele>
      </trkpt>
      <trkpt lat="46.2466" lon="6.70956">
        <ele>1435</ele>
      </trkpt>
      <trkpt lat="46.24655" lon="6.70962">
        <ele>1435</ele>
      </trkpt>
      <trkpt lat="46.24645" lon="6.70987">
        <ele>1432</ele>
      </trkpt>
      <trkpt lat="46.24637" lon="6.71009">
        <ele>1426</ele>
      </trkpt>
      <trkpt lat="46.24633" lon="6.71014">
        <ele>1427</ele>
      </trkpt>
      <trkpt lat="46.24625" lon="6.71029">
        <ele>1428</ele>
      </trkpt>
      <trkpt lat="46.24614" lon="6.71048">
        <ele>1428</ele>
      </trkpt>
      <trkpt lat="46.24598" lon="6.71062">
        <ele>1430</ele>
      </trkpt>
      <trkpt lat="46.24589" lon="6.71068">
        <ele>1431</ele>
      </trkpt>
      <trkpt lat="46.24584" lon="6.71082">
        <ele>1434</ele>
      </trkpt>
      <trkpt lat="46.24578" lon="6.71095">
        <ele>1436</ele>
      </trkpt>
      <trkpt lat="46.24572" lon="6.71104">
        <ele>1437</ele>
      </trkpt>
      <trkpt lat="46.24551" lon="6.71133">
        <ele>1438</ele>
      </trkpt>
      <trkpt lat="46.24536" lon="6.71149">
        <ele>1440</ele>
      </trkpt>
      <trkpt lat="46.24521" lon="6.71162">
        <ele>1444</ele>
      </trkpt>
      <trkpt lat="46.24506" lon="6.71185">
        <ele>1432</ele>
      </trkpt>
      <trkpt lat="46.24492" lon="6.71208">
        <ele>1473</ele>
      </trkpt>
      <trkpt lat="46.24485" lon="6.71229">
        <ele>1466</ele>
        <time>2017-09-23T08:42:14Z</time>
      </trkpt>
      <trkpt lat="46.24477" lon="6.71253">
        <ele>1442</ele>
        <time>2017-09-23T08:42:32Z</time>
      </trkpt>
      <trkpt lat="46.24467" lon="6.71275">
        <ele>1447</ele>
      </trkpt>
      <trkpt lat="46.24458" lon="6.71299">
        <ele>1446</ele>
      </trkpt>
      <trkpt lat="46.24449" lon="6.71315">
        <ele>1447</ele>
      </trkpt>
      <trkpt lat="46.24437" lon="6.7134">
        <ele>1430</ele>
      </trkpt>
      <trkpt lat="46.24427" lon="6.71362">
        <ele>1424</ele>
      </trkpt>
      <trkpt lat="46.24419" lon="6.71386">
        <ele>1419</ele>
        <time>2017-09-23T08:44:59Z</time>
      </trkpt>
      <trkpt lat="46.24411" lon="6.71409">
        <ele>1452</ele>
        <time>2017-09-23T08:45:28Z</time>
      </trkpt>
      <trkpt lat="46.24401" lon="6.71431">
        <ele>1449</ele>
      </trkpt>
      <trkpt lat="46.2439" lon="6.71453">
        <ele>1456</ele>
        <time>2017-09-23T08:46:14Z</time>
      </trkpt>
      <trkpt lat="46.24379" lon="6.71476">
        <ele>1456</ele>
      </trkpt>
      <trkpt lat="46.24369" lon="6.71499">
        <ele>1459</ele>
      </trkpt>
      <trkpt lat="46.24366" lon="6.71509">
        <ele>1440</ele>
      </trkpt>
      <trkpt lat="46.24354" lon="6.71519">
        <ele>1446</ele>
      </trkpt>
      <trkpt lat="46.24342" lon="6.71536">
        <ele>1444</ele>
      </trkpt>
      <trkpt lat="46.24338" lon="6.71545">
        <ele>1442</ele>
      </trkpt>
      <trkpt lat="46.24337" lon="6.71552">
        <ele>1441</ele>
      </trkpt>
      <trkpt lat="46.24333" lon="6.71561">
        <ele>1483</ele>
      </trkpt>
      <trkpt lat="46.24322" lon="6.71563">
        <ele>1486</ele>
      </trkpt>
      <trkpt lat="46.24318" lon="6.71592">
        <ele>1469</ele>
      </trkpt>
      <trkpt lat="46.24319" lon="6.71612">
        <ele>1472</ele>
      </trkpt>
      <trkpt lat="46.24309" lon="6.71631">
        <ele>1474</ele>
      </trkpt>
      <trkpt lat="46.24307" lon="6.71643">
        <ele>1473</ele>
      </trkpt>
      <trkpt lat="46.24294" lon="6.71655">
        <ele>1479</ele>
      </trkpt>
      <trkpt lat="46.24296" lon="6.71668">
        <ele>1471</ele>
        <time>2017-09-23T08:53:52Z</time>
      </trkpt>
      <trkpt lat="46.24294" lon="6.71694">
        <ele>1472</ele>
        <time>2017-09-23T08:54:56Z</time>
      </trkpt>
      <trkpt lat="46.24295" lon="6.71708">
        <ele>1472</ele>
      </trkpt>
      <trkpt lat="46.24289" lon="6.71711">
        <ele>1474</ele>
      </trkpt>
      <trkpt lat="46.24292" lon="6.71721">
        <ele>1473</ele>
      </trkpt>
      <trkpt lat="46.24288" lon="6.71742">
        <ele>1475</ele>
      </trkpt>
      <trkpt lat="46.24283" lon="6.71754">
        <ele>1477</ele>
      </trkpt>
      <trkpt lat="46.24276" lon="6.71764">
        <ele>1481</ele>
      </trkpt>
      <trkpt lat="46.24271" lon="6.71756">
        <ele>1487</ele>
      </trkpt>
      <trkpt lat="46.24272" lon="6.71747">
        <ele>1487</ele>
      </trkpt>
      <trkpt lat="46.24269" lon="6.71742">
        <ele>1489</ele>
      </trkpt>
      <trkpt lat="46.24261" lon="6.7176">
        <ele>1493</ele>
      </trkpt>
      <trkpt lat="46.24257" lon="6.7177">
        <ele>1490</ele>
      </trkpt>
      <trkpt lat="46.24245" lon="6.71742">
        <ele>1527</ele>
      </trkpt>
      <trkpt lat="46.24225" lon="6.71724">
        <ele>1550</ele>
      </trkpt>
      <trkpt lat="46.24213" lon="6.71708">
        <ele>1558</ele>
      </trkpt>
      <trkpt lat="46.24207" lon="6.71685">
        <ele>1565</ele>
      </trkpt>
      <trkpt lat="46.24202" lon="6.7169">
        <ele>1568</ele>
      </trkpt>
      <trkpt lat="46.24197" lon="6.71714">
        <ele>1567</ele>
      </trkpt>
      <trkpt lat="46.24188" lon="6.71702">
        <ele>1574</ele>
      </trkpt>
      <trkpt lat="46.24187" lon="6.71692">
        <ele>1578</ele>
      </trkpt>
      <trkpt lat="46.24181" lon="6.71706">
        <ele>1576</ele>
      </trkpt>
      <trkpt lat="46.24177" lon="6.71753">
        <ele>1577</ele>
        <time>2017-09-23T09:07:42Z</time>
      </trkpt>
      <trkpt lat="46.24177" lon="6.71767">
        <ele>1569</ele>
      </trkpt>
      <trkpt lat="46.24181" lon="6.71789">
        <ele>1561</ele>
      </trkpt>
      <trkpt lat="46.24179" lon="6.71795">
        <ele>1561</ele>
      </trkpt>
      <trkpt lat="46.2417" lon="6.71801">
        <ele>1563</ele>
        <time>2017-09-23T09:09:59Z</time>
      </trkpt>
      <trkpt lat="46.24167" lon="6.71802">
        <ele>1563</ele>
      </trkpt>
      <trkpt lat="46.24164" lon="6.71796">
        <ele>1605</ele>
      </trkpt>
      <trkpt lat="46.24161" lon="6.71801">
        <ele>1604</ele>
      </trkpt>
      <trkpt lat="46.24156" lon="6.71801">
        <ele>1605</ele>
      </trkpt>
      <trkpt lat="46.24152" lon="6.71798">
        <ele>1607</ele>
        <time>2017-09-23T09:11:19Z</time>
      </trkpt>
      <trkpt lat="46.2415" lon="6.71795">
        <ele>1609</ele>
      </trkpt>
      <trkpt lat="46.24146" lon="6.71798">
        <ele>1609</ele>
      </trkpt>
      <trkpt lat="46.24139" lon="6.71796">
        <ele>1612</ele>
      </trkpt>
      <trkpt lat="46.24134" lon="6.71806">
        <ele>1612</ele>
        <time>2017-09-23T09:12:20Z</time>
      </trkpt>
      <trkpt lat="46.24128" lon="6.71808">
        <ele>1615</ele>
      </trkpt>
      <trkpt lat="46.24124" lon="6.71811">
        <ele>1616</ele>
      </trkpt>
      <trkpt lat="46.24119" lon="6.7181">
        <ele>1618</ele>
      </trkpt>
      <trkpt lat="46.24117" lon="6.71814">
        <ele>1619</ele>
        <time>2017-09-23T09:13:28Z</time>
      </trkpt>
      <trkpt lat="46.24106" lon="6.71826">
        <ele>1625</ele>
      </trkpt>
      <trkpt lat="46.24105" lon="6.71824">
        <ele>1625</ele>
      </trkpt>
      <trkpt lat="46.24107" lon="6.7182">
        <ele>1624</ele>
      </trkpt>
      <trkpt lat="46.24108" lon="6.71816">
        <ele>1623</ele>
      </trkpt>
      <trkpt lat="46.24106" lon="6.71813">
        <ele>1624</ele>
      </trkpt>
      <trkpt lat="46.24102" lon="6.71815">
        <ele>1626</ele>
      </trkpt>
      <trkpt lat="46.24098" lon="6.71819">
        <ele>1627</ele>
      </trkpt>
      <trkpt lat="46.24094" lon="6.71819">
        <ele>1629</ele>
      </trkpt>
      <trkpt lat="46.24089" lon="6.71823">
        <ele>1632</ele>
      </trkpt>
      <trkpt lat="46.24085" lon="6.71825">
        <ele>1634</ele>
      </trkpt>
      <trkpt lat="46.24082" lon="6.71824">
        <ele>1650</ele>
      </trkpt>
      <trkpt lat="46.2408" lon="6.71827">
        <ele>1649</ele>
      </trkpt>
      <trkpt lat="46.24075" lon="6.7184">
        <ele>1649</ele>
      </trkpt>
      <trkpt lat="46.2407" lon="6.71868">
        <ele>1657</ele>
      </trkpt>
      <trkpt lat="46.24063" lon="6.71879">
        <ele>1659</ele>
      </trkpt>
      <trkpt lat="46.24052" lon="6.71887">
        <ele>1661</ele>
      </trkpt>
      <trkpt lat="46.24046" lon="6.71885">
        <ele>1663</ele>
      </trkpt>
      <trkpt lat="46.24042" lon="6.71885">
        <ele>1664</ele>
      </trkpt>
      <trkpt lat="46.2403" lon="6.71891">
        <ele>1668</ele>
      </trkpt>
      <trkpt lat="46.24026" lon="6.71895">
        <ele>1669</ele>
      </trkpt>
      <trkpt lat="46.24013" lon="6.71897">
        <ele>1672</ele>
      </trkpt>
      <trkpt lat="46.24006" lon="6.71899">
        <ele>1674</ele>
      </trkpt>
      <trkpt lat="46.24" lon="6.719">
        <ele>1675</ele>
      </trkpt>
      <trkpt lat="46.23993" lon="6.71893">
        <ele>1689</ele>
      </trkpt>
      <trkpt lat="46.23986" lon="6.71885">
        <ele>1690</ele>
      </trkpt>
      <trkpt lat="46.23979" lon="6.7188">
        <ele>1691</ele>
      </trkpt>
      <trkpt lat="46.23961" lon="6.71874">
        <ele>1692</ele>
        <time>2017-09-23T09:32:49Z</time>
      </trkpt>
      <trkpt lat="46.23952" lon="6.71872">
        <ele>1693</ele>
      </trkpt>
      <trkpt lat="46.23941" lon="6.71865">
        <ele>1694</ele>
      </trkpt>
      <trkpt lat="46.23935" lon="6.71857">
        <ele>1694</ele>
      </trkpt>
      <trkpt lat="46.23933" lon="6.7185">
        <ele>1695</ele>
      </trkpt>
      <trkpt lat="46.2393" lon="6.71846">
        <ele>1695</ele>
      </trkpt>
      <trkpt lat="46.23922" lon="6.7184">
        <ele>1696</ele>
      </trkpt>
      <trkpt lat="46.23915" lon="6.71834">
        <ele>1698</ele>
      </trkpt>
      <trkpt lat="46.23905" lon="6.71833">
        <ele>1700</ele>
      </trkpt>
      <trkpt lat="46.23897" lon="6.71828">
        <ele>1705</ele>
      </trkpt>
      <trkpt lat="46.2389" lon="6.71829">
        <ele>1706</ele>
      </trkpt>
      <trkpt lat="46.23883" lon="6.71834">
        <ele>1703</ele>
      </trkpt>
      <trkpt lat="46.23875" lon="6.71833">
        <ele>1707</ele>
      </trkpt>
      <trkpt lat="46.2387" lon="6.71837">
        <ele>1704</ele>
      </trkpt>
      <trkpt lat="46.23854" lon="6.71847">
        <ele>1706</ele>
      </trkpt>
      <trkpt lat="46.23837" lon="6.71866">
        <ele>1706</ele>
      </trkpt>
      <trkpt lat="46.23827" lon="6.71871">
        <ele>1722</ele>
      </trkpt>
      <trkpt lat="46.23821" lon="6.71874">
        <ele>1723</ele>
      </trkpt>
      <trkpt lat="46.23817" lon="6.7188">
        <ele>1723</ele>
      </trkpt>
      <trkpt lat="46.23806" lon="6.71884">
        <ele>1725</ele>
      </trkpt>
      <trkpt lat="46.238" lon="6.71883">
        <ele>1727</ele>
      </trkpt>
      <trkpt lat="46.23793" lon="6.71882">
        <ele>1728</ele>
      </trkpt>
      <trkpt lat="46.23783" lon="6.71875">
        <ele>1730</ele>
        <time>2017-09-23T09:39:10Z</time>
      </trkpt>
      <trkpt lat="46.23767" lon="6.71862">
        <ele>1733</ele>
        <time>2017-09-23T09:40:23Z</time>
      </trkpt>
      <trkpt lat="46.2376" lon="6.71853">
        <ele>1735</ele>
      </trkpt>
      <trkpt lat="46.23753" lon="6.71854">
        <ele>1735</ele>
      </trkpt>
      <trkpt lat="46.23749" lon="6.71862">
        <ele>1764</ele>
      </trkpt>
      <trkpt lat="46.23741" lon="6.71874">
        <ele>1768</ele>
      </trkpt>
      <trkpt lat="46.23734" lon="6.71884">
        <ele>1769</ele>
      </trkpt>
      <trkpt lat="46.23724" lon="6.71905">
        <ele>1770</ele>
      </trkpt>
      <trkpt lat="46.23721" lon="6.7192">
        <ele>1772</ele>
      </trkpt>
      <trkpt lat="46.23717" lon="6.7193">
        <ele>1774</ele>
        <time>2017-09-23T09:45:19Z</time>
      </trkpt>
      <trkpt lat="46.23707" lon="6.71952">
        <ele>1779</ele>
        <time>2017-09-23T09:46:10Z</time>
      </trkpt>
      <trkpt lat="46.23703" lon="6.71968">
        <ele>1780</ele>
      </trkpt>
      <trkpt lat="46.23698" lon="6.71972">
        <ele>1782</ele>
      </trkpt>
      <trkpt lat="46.23697" lon="6.71976">
        <ele>1782</ele>
      </trkpt>
      <trkpt lat="46.23694" lon="6.71982">
        <ele>1784</ele>
      </trkpt>
      <trkpt lat="46.23694" lon="6.71993">
        <ele>1785</ele>
      </trkpt>
      <trkpt lat="46.23692" lon="6.72001">
        <ele>1790</ele>
      </trkpt>
      <trkpt lat="46.23689" lon="6.72004">
        <ele>1791</ele>
      </trkpt>
      <trkpt lat="46.2368" lon="6.72012">
        <ele>1793</ele>
      </trkpt>
      <trkpt lat="46.23671" lon="6.72018">
        <ele>1794</ele>
      </trkpt>
      <trkpt lat="46.23664" lon="6.72019">
        <ele>1804</ele>
      </trkpt>
      <trkpt lat="46.23653" lon="6.72021">
        <ele>1805</ele>
      </trkpt>
      <trkpt lat="46.23644" lon="6.7202">
        <ele>1805</ele>
      </trkpt>
      <trkpt lat="46.23636" lon="6.72018">
        <ele>1805</ele>
      </trkpt>
      <trkpt lat="46.23632" lon="6.72021">
        <ele>1806</ele>
      </trkpt>
      <trkpt lat="46.23628" lon="6.72019">
        <ele>1806</ele>
      </trkpt>
      <trkpt lat="46.23626" lon="6.72025">
        <ele>1806</ele>
      </trkpt>
      <trkpt lat="46.23624" lon="6.72036">
        <ele>1807</ele>
      </trkpt>
      <trkpt lat="46.23621" lon="6.72045">
        <ele>1807</ele>
        <time>2017-09-23T10:07:03Z</time>
      </trkpt>
      <trkpt lat="46.2361" lon="6.72065">
        <ele>1808</ele>
        <time>2017-09-23T09:54:19Z</time>
      </trkpt>
      <trkpt lat="46.23615" lon="6.72054">
        <ele>1808</ele>
      </trkpt>
      <trkpt lat="46.23622" lon="6.72044">
        <ele>1807</ele>
      </trkpt>
      <trkpt lat="46.23625" lon="6.7203">
        <ele>1807</ele>
      </trkpt>
      <trkpt lat="46.23628" lon="6.7202">
        <ele>1806</ele>
        <time>2017-09-23T09:53:09Z</time>
      </trkpt>
      <trkpt lat="46.23635" lon="6.71996">
        <ele>1805</ele>
        <time>2017-09-23T10:09:51Z</time>
      </trkpt>
      <trkpt lat="46.23638" lon="6.7197">
        <ele>1805</ele>
        <time>2017-09-23T10:10:24Z</time>
      </trkpt>
      <trkpt lat="46.23642" lon="6.71947">
        <ele>1806</ele>
      </trkpt>
      <trkpt lat="46.23635" lon="6.71924">
        <ele>1807</ele>
      </trkpt>
      <trkpt lat="46.23626" lon="6.71901">
        <ele>1815</ele>
        <time>2017-09-23T10:12:35Z</time>
      </trkpt>
      <trkpt lat="46.2362" lon="6.71877">
        <ele>1817</ele>
      </trkpt>
      <trkpt lat="46.23619" lon="6.7185">
        <ele>1820</ele>
      </trkpt>
      <trkpt lat="46.23614" lon="6.71824">
        <ele>1835</ele>
      </trkpt>
      <trkpt lat="46.23609" lon="6.71806">
        <ele>1837</ele>
      </trkpt>
      <trkpt lat="46.23604" lon="6.718">
        <ele>1839</ele>
      </trkpt>
      <trkpt lat="46.23599" lon="6.71788">
        <ele>1841</ele>
      </trkpt>
      <trkpt lat="46.23595" lon="6.71785">
        <ele>1843</ele>
      </trkpt>
      <trkpt lat="46.23594" lon="6.71775">
        <ele>1845</ele>
      </trkpt>
      <trkpt lat="46.2359" lon="6.71762">
        <ele>1851</ele>
      </trkpt>
      <trkpt lat="46.23587" lon="6.7175">
        <ele>1861</ele>
      </trkpt>
      <trkpt lat="46.23582" lon="6.71728">
        <ele>1861</ele>
      </trkpt>
      <trkpt lat="46.23575" lon="6.71704">
        <ele>1864</ele>
      </trkpt>
      <trkpt lat="46.23568" lon="6.71683">
        <ele>1868</ele>
      </trkpt>
      <trkpt lat="46.23567" lon="6.7166">
        <ele>1881</ele>
      </trkpt>
      <trkpt lat="46.23564" lon="6.71648">
        <ele>1883</ele>
      </trkpt>
      <trkpt lat="46.23559" lon="6.71636">
        <ele>1884</ele>
        <time>2017-09-23T10:23:35Z</time>
      </trkpt>
      <trkpt lat="46.23557" lon="6.71632">
        <ele>1884</ele>
      </trkpt>
      <trkpt lat="46.23553" lon="6.71631">
        <ele>1884</ele>
      </trkpt>
      <trkpt lat="46.23552" lon="6.71625">
        <ele>1885</ele>
      </trkpt>
      <trkpt lat="46.23553" lon="6.71607">
        <ele>1889</ele>
      </trkpt>
      <trkpt lat="46.23544" lon="6.71587">
        <ele>1890</ele>
        <time>2017-09-23T10:25:04Z</time>
      </trkpt>
      <trkpt lat="46.23528" lon="6.71576">
        <ele>1902</ele>
        <time>2017-09-23T10:25:33Z</time>
      </trkpt>
      <trkpt lat="46.23519" lon="6.71552">
        <ele>1904</ele>
      </trkpt>
      <trkpt lat="46.23514" lon="6.71539">
        <ele>1906</ele>
      </trkpt>
      <trkpt lat="46.2351" lon="6.71528">
        <ele>1907</ele>
      </trkpt>
      <trkpt lat="46.23505" lon="6.71519">
        <ele>1908</ele>
      </trkpt>
      <trkpt lat="46.23498" lon="6.71511">
        <ele>1902</ele>
      </trkpt>
      <trkpt lat="46.23484" lon="6.71491">
        <ele>1911</ele>
      </trkpt>
      <trkpt lat="46.23475" lon="6.71475">
        <ele>1912</ele>
      </trkpt>
      <trkpt lat="46.23465" lon="6.71456">
        <ele>1914</ele>
      </trkpt>
      <trkpt lat="46.23458" lon="6.71445">
        <ele>1915</ele>
      </trkpt>
      <trkpt lat="46.23453" lon="6.71436">
        <ele>1916</ele>
      </trkpt>
      <trkpt lat="46.2344" lon="6.71423">
        <ele>1915</ele>
      </trkpt>
      <trkpt lat="46.23427" lon="6.71411">
        <ele>1925</ele>
      </trkpt>
      <trkpt lat="46.23417" lon="6.71395">
        <ele>1921</ele>
      </trkpt>
      <trkpt lat="46.2341" lon="6.71382">
        <ele>1923</ele>
      </trkpt>
      <trkpt lat="46.23404" lon="6.71365">
        <ele>1927</ele>
      </trkpt>
      <trkpt lat="46.23399" lon="6.7135">
        <ele>1930</ele>
      </trkpt>
      <trkpt lat="46.23389" lon="6.71329">
        <ele>1944</ele>
      </trkpt>
      <trkpt lat="46.23384" lon="6.71311">
        <ele>1945</ele>
      </trkpt>
      <trkpt lat="46.23364" lon="6.71288">
        <ele>1947</ele>
      </trkpt>
      <trkpt lat="46.23352" lon="6.7126">
        <ele>1950</ele>
      </trkpt>
      <trkpt lat="46.23334" lon="6.71231">
        <ele>1963</ele>
      </trkpt>
      <trkpt lat="46.2331" lon="6.712">
        <ele>1973</ele>
      </trkpt>
      <trkpt lat="46.23301" lon="6.71181">
        <ele>1976</ele>
      </trkpt>
      <trkpt lat="46.23292" lon="6.71181">
        <ele>1977</ele>
      </trkpt>
      <trkpt lat="46.23283" lon="6.71181">
        <ele>1978</ele>
      </trkpt>
      <trkpt lat="46.23279" lon="6.71181">
        <ele>1978</ele>
      </trkpt>
      <trkpt lat="46.23273" lon="6.7118">
        <ele>1979</ele>
      </trkpt>
      <trkpt lat="46.23267" lon="6.7118">
        <ele>1980</ele>
      </trkpt>
      <trkpt lat="46.23264" lon="6.71183">
        <ele>1980</ele>
      </trkpt>
      <trkpt lat="46.23259" lon="6.71188">
        <ele>1980</ele>
      </trkpt>
      <trkpt lat="46.23255" lon="6.71182">
        <ele>1982</ele>
      </trkpt>
      <trkpt lat="46.23254" lon="6.71161">
        <ele>1989</ele>
      </trkpt>
      <trkpt lat="46.23253" lon="6.71145">
        <ele>1992</ele>
      </trkpt>
      <trkpt lat="46.23252" lon="6.71135">
        <ele>1994</ele>
      </trkpt>
      <trkpt lat="46.23249" lon="6.71127">
        <ele>1988</ele>
      </trkpt>
      <trkpt lat="46.23252" lon="6.71134">
        <ele>1994</ele>
      </trkpt>
      <trkpt lat="46.23252" lon="6.7115">
        <ele>1991</ele>
      </trkpt>
      <trkpt lat="46.23253" lon="6.71161">
        <ele>1989</ele>
      </trkpt>
      <trkpt lat="46.23255" lon="6.71182">
        <ele>1982</ele>
      </trkpt>
      <trkpt lat="46.23258" lon="6.71188">
        <ele>1980</ele>
      </trkpt>
      <trkpt lat="46.23266" lon="6.71182">
        <ele>1980</ele>
      </trkpt>
      <trkpt lat="46.2327" lon="6.71181">
        <ele>1980</ele>
      </trkpt>
      <trkpt lat="46.23286" lon="6.71182">
        <ele>1977</ele>
      </trkpt>
      <trkpt lat="46.23295" lon="6.7118">
        <ele>1976</ele>
      </trkpt>
      <trkpt lat="46.23301" lon="6.71181">
        <ele>1976</ele>
      </trkpt>
      <trkpt lat="46.23307" lon="6.71196">
        <ele>1974</ele>
      </trkpt>
      <trkpt lat="46.23321" lon="6.71214">
        <ele>1970</ele>
      </trkpt>
      <trkpt lat="46.23333" lon="6.7123">
        <ele>1964</ele>
      </trkpt>
      <trkpt lat="46.23339" lon="6.71241">
        <ele>1959</ele>
      </trkpt>
      <trkpt lat="46.23346" lon="6.71252">
        <ele>1950</ele>
      </trkpt>
      <trkpt lat="46.23355" lon="6.71266">
        <ele>1949</ele>
      </trkpt>
      <trkpt lat="46.23369" lon="6.71293">
        <ele>1946</ele>
      </trkpt>
      <trkpt lat="46.23384" lon="6.71311">
        <ele>1945</ele>
      </trkpt>
      <trkpt lat="46.23389" lon="6.71329">
        <ele>1944</ele>
      </trkpt>
      <trkpt lat="46.23402" lon="6.71356">
        <ele>1929</ele>
      </trkpt>
      <trkpt lat="46.2341" lon="6.71383">
        <ele>1923</ele>
      </trkpt>
      <trkpt lat="46.2342" lon="6.71401">
        <ele>1927</ele>
      </trkpt>
      <trkpt lat="46.23436" lon="6.71419">
        <ele>1915</ele>
      </trkpt>
      <trkpt lat="46.23445" lon="6.71428">
        <ele>1915</ele>
      </trkpt>
      <trkpt lat="46.23454" lon="6.71436">
        <ele>1916</ele>
      </trkpt>
      <trkpt lat="46.23465" lon="6.71456">
        <ele>1914</ele>
      </trkpt>
      <trkpt lat="46.23476" lon="6.71477">
        <ele>1912</ele>
      </trkpt>
      <trkpt lat="46.23481" lon="6.71486">
        <ele>1911</ele>
      </trkpt>
      <trkpt lat="46.23486" lon="6.71494">
        <ele>1911</ele>
      </trkpt>
      <trkpt lat="46.23499" lon="6.71512">
        <ele>1902</ele>
      </trkpt>
      <trkpt lat="46.23507" lon="6.71522">
        <ele>1908</ele>
      </trkpt>
      <trkpt lat="46.23511" lon="6.71532">
        <ele>1907</ele>
      </trkpt>
      <trkpt lat="46.23516" lon="6.71545">
        <ele>1905</ele>
      </trkpt>
      <trkpt lat="46.2352" lon="6.71557">
        <ele>1903</ele>
      </trkpt>
      <trkpt lat="46.23528" lon="6.71577">
        <ele>1902</ele>
      </trkpt>
      <trkpt lat="46.23538" lon="6.71582">
        <ele>1903</ele>
      </trkpt>
      <trkpt lat="46.23544" lon="6.71586">
        <ele>1890</ele>
      </trkpt>
      <trkpt lat="46.23548" lon="6.71597">
        <ele>1889</ele>
      </trkpt>
      <trkpt lat="46.23554" lon="6.71607">
        <ele>1889</ele>
      </trkpt>
      <trkpt lat="46.23552" lon="6.71625">
        <ele>1885</ele>
      </trkpt>
      <trkpt lat="46.23554" lon="6.71631">
        <ele>1884</ele>
      </trkpt>
      <trkpt lat="46.23558" lon="6.71634">
        <ele>1884</ele>
      </trkpt>
      <trkpt lat="46.23562" lon="6.71641">
        <ele>1883</ele>
      </trkpt>
      <trkpt lat="46.23564" lon="6.71652">
        <ele>1882</ele>
      </trkpt>
      <trkpt lat="46.23567" lon="6.71667">
        <ele>1870</ele>
      </trkpt>
      <trkpt lat="46.23568" lon="6.71682">
        <ele>1868</ele>
      </trkpt>
      <trkpt lat="46.23573" lon="6.71694">
        <ele>1866</ele>
        <time>2017-09-23T11:47:29Z</time>
      </trkpt>
      <trkpt lat="46.2358" lon="6.71718">
        <ele>1862</ele>
        <time>2017-09-23T11:48:38Z</time>
      </trkpt>
      <trkpt lat="46.23585" lon="6.71741">
        <ele>1861</ele>
      </trkpt>
      <trkpt lat="46.2359" lon="6.71766">
        <ele>1850</ele>
      </trkpt>
      <trkpt lat="46.23594" lon="6.71776">
        <ele>1845</ele>
      </trkpt>
      <trkpt lat="46.23595" lon="6.71786">
        <ele>1842</ele>
      </trkpt>
      <trkpt lat="46.23599" lon="6.7179">
        <ele>1841</ele>
        <time>2017-09-23T11:50:50Z</time>
      </trkpt>
      <trkpt lat="46.23606" lon="6.71804">
        <ele>1838</ele>
      </trkpt>
      <trkpt lat="46.23609" lon="6.71807">
        <ele>1837</ele>
      </trkpt>
      <trkpt lat="46.23611" lon="6.71817">
        <ele>1836</ele>
      </trkpt>
      <trkpt lat="46.23617" lon="6.71837">
        <ele>1822</ele>
        <time>2017-09-23T11:51:58Z</time>
      </trkpt>
      <trkpt lat="46.23619" lon="6.7185">
        <ele>1820</ele>
      </trkpt>
      <trkpt lat="46.23619" lon="6.71863">
        <ele>1819</ele>
        <time>2017-09-23T11:52:33Z</time>
      </trkpt>
      <trkpt lat="46.23621" lon="6.71877">
        <ele>1817</ele>
      </trkpt>
      <trkpt lat="46.23624" lon="6.71889">
        <ele>1816</ele>
      </trkpt>
      <trkpt lat="46.23627" lon="6.719">
        <ele>1815</ele>
      </trkpt>
      <trkpt lat="46.23631" lon="6.71913">
        <ele>1814</ele>
      </trkpt>
      <trkpt lat="46.23639" lon="6.71937">
        <ele>1806</ele>
        <time>2017-09-23T11:54:19Z</time>
      </trkpt>
      <trkpt lat="46.2364" lon="6.71939">
        <ele>1806</ele>
      </trkpt>
      <trkpt lat="46.23642" lon="6.71947">
        <ele>1806</ele>
      </trkpt>
      <trkpt lat="46.2364" lon="6.71958">
        <ele>1806</ele>
      </trkpt>
      <trkpt lat="46.23635" lon="6.71994">
        <ele>1805</ele>
      </trkpt>
      <trkpt lat="46.23632" lon="6.72004">
        <ele>1805</ele>
      </trkpt>
      <trkpt lat="46.23631" lon="6.72008">
        <ele>1805</ele>
      </trkpt>
      <trkpt lat="46.23628" lon="6.72018">
        <ele>1806</ele>
      </trkpt>
      <trkpt lat="46.23629" lon="6.7202">
        <ele>1806</ele>
      </trkpt>
      <trkpt lat="46.2363" lon="6.72021">
        <ele>1806</ele>
      </trkpt>
      <trkpt lat="46.23632" lon="6.72021">
        <ele>1806</ele>
      </trkpt>
      <trkpt lat="46.23636" lon="6.72018">
        <ele>1805</ele>
      </trkpt>
      <trkpt lat="46.23644" lon="6.7202">
        <ele>1805</ele>
      </trkpt>
      <trkpt lat="46.23652" lon="6.72021">
        <ele>1805</ele>
      </trkpt>
      <trkpt lat="46.23663" lon="6.7202">
        <ele>1804</ele>
      </trkpt>
      <trkpt lat="46.23672" lon="6.72018">
        <ele>1794</ele>
      </trkpt>
      <trkpt lat="46.23679" lon="6.72013">
        <ele>1793</ele>
      </trkpt>
      <trkpt lat="46.23688" lon="6.72006">
        <ele>1791</ele>
      </trkpt>
      <trkpt lat="46.23692" lon="6.72">
        <ele>1790</ele>
      </trkpt>
      <trkpt lat="46.23694" lon="6.71993">
        <ele>1785</ele>
      </trkpt>
      <trkpt lat="46.23694" lon="6.71983">
        <ele>1784</ele>
      </trkpt>
      <trkpt lat="46.23699" lon="6.71972">
        <ele>1782</ele>
      </trkpt>
      <trkpt lat="46.23702" lon="6.7197">
        <ele>1781</ele>
      </trkpt>
      <trkpt lat="46.23704" lon="6.71965">
        <ele>1780</ele>
      </trkpt>
      <trkpt lat="46.23707" lon="6.71953">
        <ele>1779</ele>
      </trkpt>
      <trkpt lat="46.23712" lon="6.71941">
        <ele>1777</ele>
      </trkpt>
      <trkpt lat="46.23717" lon="6.71931">
        <ele>1775</ele>
      </trkpt>
      <trkpt lat="46.23721" lon="6.7192">
        <ele>1772</ele>
      </trkpt>
      <trkpt lat="46.23723" lon="6.71906">
        <ele>1771</ele>
      </trkpt>
      <trkpt lat="46.2373" lon="6.71895">
        <ele>1769</ele>
      </trkpt>
      <trkpt lat="46.23734" lon="6.71886">
        <ele>1769</ele>
      </trkpt>
      <trkpt lat="46.2374" lon="6.71875">
        <ele>1768</ele>
      </trkpt>
      <trkpt lat="46.2375" lon="6.71861">
        <ele>1764</ele>
      </trkpt>
      <trkpt lat="46.23753" lon="6.71854">
        <ele>1735</ele>
      </trkpt>
      <trkpt lat="46.2376" lon="6.71853">
        <ele>1735</ele>
      </trkpt>
      <trkpt lat="46.23766" lon="6.71862">
        <ele>1733</ele>
      </trkpt>
      <trkpt lat="46.23775" lon="6.71868">
        <ele>1731</ele>
      </trkpt>
      <trkpt lat="46.23781" lon="6.71873">
        <ele>1730</ele>
      </trkpt>
      <trkpt lat="46.23788" lon="6.71879">
        <ele>1729</ele>
      </trkpt>
      <trkpt lat="46.23796" lon="6.71882">
        <ele>1728</ele>
      </trkpt>
      <trkpt lat="46.23802" lon="6.71884">
        <ele>1726</ele>
      </trkpt>
      <trkpt lat="46.23811" lon="6.71883">
        <ele>1725</ele>
      </trkpt>
      <trkpt lat="46.23815" lon="6.71881">
        <ele>1724</ele>
      </trkpt>
      <trkpt lat="46.2382" lon="6.71873">
        <ele>1723</ele>
      </trkpt>
      <trkpt lat="46.23829" lon="6.7187">
        <ele>1722</ele>
      </trkpt>
      <trkpt lat="46.23836" lon="6.71866">
        <ele>1706</ele>
      </trkpt>
      <trkpt lat="46.23845" lon="6.71857">
        <ele>1706</ele>
      </trkpt>
      <trkpt lat="46.23849" lon="6.71852">
        <ele>1706</ele>
      </trkpt>
      <trkpt lat="46.23854" lon="6.71848">
        <ele>1706</ele>
      </trkpt>
      <trkpt lat="46.23864" lon="6.7184">
        <ele>1705</ele>
      </trkpt>
      <trkpt lat="46.23874" lon="6.71832">
        <ele>1707</ele>
      </trkpt>
      <trkpt lat="46.23884" lon="6.71834">
        <ele>1703</ele>
      </trkpt>
      <trkpt lat="46.23893" lon="6.71828">
        <ele>1705</ele>
      </trkpt>
      <trkpt lat="46.23899" lon="6.71829">
        <ele>1704</ele>
      </trkpt>
      <trkpt lat="46.23904" lon="6.71834">
        <ele>1700</ele>
      </trkpt>
      <trkpt lat="46.2391" lon="6.71833">
        <ele>1701</ele>
      </trkpt>
      <trkpt lat="46.23916" lon="6.71837">
        <ele>1699</ele>
      </trkpt>
      <trkpt lat="46.2393" lon="6.71846">
        <ele>1695</ele>
      </trkpt>
      <trkpt lat="46.23933" lon="6.7185">
        <ele>1695</ele>
      </trkpt>
      <trkpt lat="46.23936" lon="6.71857">
        <ele>1694</ele>
      </trkpt>
      <trkpt lat="46.23941" lon="6.71866">
        <ele>1694</ele>
      </trkpt>
      <trkpt lat="46.23953" lon="6.71872">
        <ele>1693</ele>
      </trkpt>
      <trkpt lat="46.23966" lon="6.71877">
        <ele>1692</ele>
      </trkpt>
      <trkpt lat="46.23979" lon="6.71882">
        <ele>1691</ele>
      </trkpt>
      <trkpt lat="46.23988" lon="6.71886">
        <ele>1690</ele>
      </trkpt>
      <trkpt lat="46.23997" lon="6.71899">
        <ele>1688</ele>
      </trkpt>
      <trkpt lat="46.24" lon="6.71901">
        <ele>1676</ele>
      </trkpt>
      <trkpt lat="46.24006" lon="6.719">
        <ele>1674</ele>
      </trkpt>
      <trkpt lat="46.24013" lon="6.71898">
        <ele>1673</ele>
      </trkpt>
      <trkpt lat="46.24026" lon="6.71895">
        <ele>1669</ele>
      </trkpt>
      <trkpt lat="46.2403" lon="6.71892">
        <ele>1668</ele>
      </trkpt>
      <trkpt lat="46.24041" lon="6.71885">
        <ele>1664</ele>
      </trkpt>
      <trkpt lat="46.24051" lon="6.71887">
        <ele>1662</ele>
      </trkpt>
      <trkpt lat="46.24061" lon="6.7188">
        <ele>1659</ele>
      </trkpt>
      <trkpt lat="46.24069" lon="6.71869">
        <ele>1658</ele>
      </trkpt>
      <trkpt lat="46.24073" lon="6.7185">
        <ele>1653</ele>
      </trkpt>
      <trkpt lat="46.24075" lon="6.71842">
        <ele>1649</ele>
      </trkpt>
      <trkpt lat="46.2408" lon="6.71825">
        <ele>1650</ele>
      </trkpt>
      <trkpt lat="46.24087" lon="6.71824">
        <ele>1633</ele>
      </trkpt>
      <trkpt lat="46.2409" lon="6.71823">
        <ele>1632</ele>
      </trkpt>
      <trkpt lat="46.24094" lon="6.71819">
        <ele>1629</ele>
      </trkpt>
      <trkpt lat="46.24105" lon="6.71813">
        <ele>1624</ele>
      </trkpt>
      <trkpt lat="46.24109" lon="6.71814">
        <ele>1623</ele>
      </trkpt>
      <trkpt lat="46.24106" lon="6.71822">
        <ele>1624</ele>
      </trkpt>
      <trkpt lat="46.24105" lon="6.71826">
        <ele>1625</ele>
      </trkpt>
      <trkpt lat="46.24106" lon="6.71825">
        <ele>1625</ele>
      </trkpt>
      <trkpt lat="46.2412" lon="6.7181">
        <ele>1618</ele>
      </trkpt>
      <trkpt lat="46.24124" lon="6.7181">
        <ele>1616</ele>
      </trkpt>
      <trkpt lat="46.24127" lon="6.71807">
        <ele>1615</ele>
      </trkpt>
      <trkpt lat="46.24134" lon="6.71806">
        <ele>1612</ele>
        <time>2017-09-23T09:12:20Z</time>
      </trkpt>
      <trkpt lat="46.24138" lon="6.71797">
        <ele>1612</ele>
      </trkpt>
      <trkpt lat="46.24145" lon="6.71798">
        <ele>1609</ele>
      </trkpt>
      <trkpt lat="46.24149" lon="6.71795">
        <ele>1609</ele>
      </trkpt>
      <trkpt lat="46.24157" lon="6.71803">
        <ele>1605</ele>
      </trkpt>
      <trkpt lat="46.24165" lon="6.718">
        <ele>1604</ele>
      </trkpt>
      <trkpt lat="46.24169" lon="6.71802">
        <ele>1563</ele>
      </trkpt>
      <trkpt lat="46.24178" lon="6.71796">
        <ele>1561</ele>
      </trkpt>
      <trkpt lat="46.2418" lon="6.71789">
        <ele>1561</ele>
      </trkpt>
      <trkpt lat="46.24176" lon="6.71759">
        <ele>1575</ele>
      </trkpt>
      <trkpt lat="46.24179" lon="6.71734">
        <ele>1576</ele>
      </trkpt>
      <trkpt lat="46.2418" lon="6.71707">
        <ele>1576</ele>
      </trkpt>
      <trkpt lat="46.24187" lon="6.71692">
        <ele>1578</ele>
      </trkpt>
      <trkpt lat="46.24191" lon="6.71707">
        <ele>1571</ele>
      </trkpt>
      <trkpt lat="46.24195" lon="6.71713">
        <ele>1568</ele>
      </trkpt>
      <trkpt lat="46.24198" lon="6.71714">
        <ele>1566</ele>
      </trkpt>
      <trkpt lat="46.24202" lon="6.7169">
        <ele>1568</ele>
      </trkpt>
      <trkpt lat="46.24207" lon="6.71686">
        <ele>1565</ele>
      </trkpt>
      <trkpt lat="46.24211" lon="6.71693">
        <ele>1561</ele>
      </trkpt>
      <trkpt lat="46.24214" lon="6.71709">
        <ele>1558</ele>
      </trkpt>
      <trkpt lat="46.24225" lon="6.71724">
        <ele>1550</ele>
      </trkpt>
      <trkpt lat="46.24245" lon="6.7174">
        <ele>1529</ele>
      </trkpt>
      <trkpt lat="46.24256" lon="6.7177">
        <ele>1491</ele>
      </trkpt>
      <trkpt lat="46.24269" lon="6.71743">
        <ele>1489</ele>
      </trkpt>
      <trkpt lat="46.24271" lon="6.71747">
        <ele>1488</ele>
      </trkpt>
      <trkpt lat="46.24272" lon="6.71756">
        <ele>1486</ele>
      </trkpt>
      <trkpt lat="46.24275" lon="6.71764">
        <ele>1482</ele>
      </trkpt>
      <trkpt lat="46.24283" lon="6.71755">
        <ele>1477</ele>
      </trkpt>
      <trkpt lat="46.24288" lon="6.71742">
        <ele>1475</ele>
      </trkpt>
      <trkpt lat="46.24292" lon="6.71721">
        <ele>1473</ele>
      </trkpt>
      <trkpt lat="46.2429" lon="6.71711">
        <ele>1474</ele>
      </trkpt>
      <trkpt lat="46.24295" lon="6.71708">
        <ele>1471</ele>
      </trkpt>
      <trkpt lat="46.24295" lon="6.71657">
        <ele>1479</ele>
      </trkpt>
      <trkpt lat="46.24308" lon="6.71643">
        <ele>1472</ele>
      </trkpt>
      <trkpt lat="46.24309" lon="6.71631">
        <ele>1474</ele>
      </trkpt>
      <trkpt lat="46.24319" lon="6.7161">
        <ele>1472</ele>
      </trkpt>
      <trkpt lat="46.24318" lon="6.71591">
        <ele>1468</ele>
      </trkpt>
      <trkpt lat="46.2432" lon="6.71581">
        <ele>1475</ele>
      </trkpt>
      <trkpt lat="46.24322" lon="6.71563">
        <ele>1486</ele>
      </trkpt>
      <trkpt lat="46.24333" lon="6.7156">
        <ele>1442</ele>
      </trkpt>
      <trkpt lat="46.24337" lon="6.71552">
        <ele>1441</ele>
      </trkpt>
      <trkpt lat="46.24338" lon="6.71545">
        <ele>1442</ele>
      </trkpt>
      <trkpt lat="46.24345" lon="6.71532">
        <ele>1445</ele>
      </trkpt>
      <trkpt lat="46.24354" lon="6.7152">
        <ele>1446</ele>
      </trkpt>
      <trkpt lat="46.24366" lon="6.71509">
        <ele>1440</ele>
      </trkpt>
      <trkpt lat="46.2437" lon="6.71497">
        <ele>1459</ele>
      </trkpt>
      <trkpt lat="46.24381" lon="6.7147">
        <ele>1456</ele>
      </trkpt>
      <trkpt lat="46.2441" lon="6.71408">
        <ele>1455</ele>
      </trkpt>
      <trkpt lat="46.24434" lon="6.71345">
        <ele>1430</ele>
      </trkpt>
      <trkpt lat="46.24458" lon="6.71297">
        <ele>1446</ele>
      </trkpt>
      <trkpt lat="46.24475" lon="6.71256">
        <ele>1443</ele>
      </trkpt>
      <trkpt lat="46.24491" lon="6.71208">
        <ele>1473</ele>
      </trkpt>
      <trkpt lat="46.24521" lon="6.71164">
        <ele>1444</ele>
      </trkpt>
      <trkpt lat="46.2455" lon="6.71134">
        <ele>1438</ele>
      </trkpt>
      <trkpt lat="46.24569" lon="6.7111">
        <ele>1438</ele>
      </trkpt>
      <trkpt lat="46.24579" lon="6.7109">
        <ele>1436</ele>
      </trkpt>
      <trkpt lat="46.24588" lon="6.71068">
        <ele>1431</ele>
      </trkpt>
      <trkpt lat="46.24601" lon="6.71059">
        <ele>1429</ele>
      </trkpt>
      <trkpt lat="46.24615" lon="6.71047">
        <ele>1428</ele>
      </trkpt>
      <trkpt lat="46.24621" lon="6.71037">
        <ele>1428</ele>
      </trkpt>
      <trkpt lat="46.24636" lon="6.71009">
        <ele>1426</ele>
      </trkpt>
      <trkpt lat="46.24656" lon="6.70961">
        <ele>1435</ele>
      </trkpt>
      <trkpt lat="46.2466" lon="6.70957">
        <ele>1435</ele>
      </trkpt>
      <trkpt lat="46.24663" lon="6.70948">
        <ele>1435</ele>
      </trkpt>
      <trkpt lat="46.24677" lon="6.7093">
        <ele>1426</ele>
      </trkpt>
      <trkpt lat="46.24689" lon="6.70924">
        <ele>1426</ele>
      </trkpt>
      <trkpt lat="46.247" lon="6.70928">
        <ele>1426</ele>
      </trkpt>
      <trkpt lat="46.24719" lon="6.70924">
        <ele>1426</ele>
      </trkpt>
      <trkpt lat="46.24744" lon="6.70925">
        <ele>1428</ele>
      </trkpt>
      <trkpt lat="46.24756" lon="6.70931">
        <ele>1431</ele>
      </trkpt>
      <trkpt lat="46.24764" lon="6.7093">
        <ele>1432</ele>
      </trkpt>
      <trkpt lat="46.24769" lon="6.70931">
        <ele>1432</ele>
      </trkpt>
      <trkpt lat="46.24772" lon="6.70934">
        <ele>1433</ele>
      </trkpt>
      <trkpt lat="46.24795" lon="6.7099">
        <ele>1431</ele>
        <time>2017-09-23T13:15:15Z</time>
      </trkpt>
      <trkpt lat="46.24807" lon="6.71011">
        <ele>1421</ele>
        <time>2017-09-23T13:15:41Z</time>
      </trkpt>
      <trkpt lat="46.24814" lon="6.71036">
        <ele>1418</ele>
        <time>2017-09-23T13:15:56Z</time>
      </trkpt>
      <trkpt lat="46.24814" lon="6.71063">
        <ele>1416</ele>
        <time>2017-09-23T13:16:14Z</time>
      </trkpt>
      <trkpt lat="46.24816" lon="6.71089">
        <ele>1406</ele>
        <time>2017-09-23T13:16:31Z</time>
      </trkpt>
      <trkpt lat="46.24822" lon="6.71114">
        <ele>1402</ele>
      </trkpt>
      <trkpt lat="46.2483" lon="6.71133">
        <ele>1400</ele>
      </trkpt>
      <trkpt lat="46.24835" lon="6.71148">
        <ele>1408</ele>
      </trkpt>
      <trkpt lat="46.2484" lon="6.71166">
        <ele>1402</ele>
      </trkpt>
      <trkpt lat="46.2484" lon="6.71189">
        <ele>1398</ele>
        <time>2017-09-23T13:17:54Z</time>
      </trkpt>
      <trkpt lat="46.24844" lon="6.71214">
        <ele>1396</ele>
      </trkpt>
      <trkpt lat="46.24843" lon="6.71244">
        <ele>1388</ele>
      </trkpt>
      <trkpt lat="46.24834" lon="6.71266">
        <ele>1382</ele>
        <time>2017-09-23T13:18:53Z</time>
      </trkpt>
      <trkpt lat="46.24828" lon="6.71291">
        <ele>1371</ele>
        <time>2017-09-23T13:19:22Z</time>
      </trkpt>
      <trkpt lat="46.24819" lon="6.71319">
        <ele>1369</ele>
      </trkpt>
      <trkpt lat="46.24831" lon="6.71328">
        <ele>1368</ele>
        <time>2017-09-23T13:20:09Z</time>
      </trkpt>
      <trkpt lat="46.2484" lon="6.71334">
        <ele>1368</ele>
      </trkpt>
      <trkpt lat="46.24836" lon="6.71353">
        <ele>1368</ele>
        <time>2017-09-23T13:20:32Z</time>
      </trkpt>
      <trkpt lat="46.24834" lon="6.71379">
        <ele>1365</ele>
        <time>2017-09-23T13:20:51Z</time>
      </trkpt>
      <trkpt lat="46.24831" lon="6.71405">
        <ele>1355</ele>
        <time>2017-09-23T13:21:08Z</time>
      </trkpt>
      <trkpt lat="46.24822" lon="6.71428">
        <ele>1347</ele>
        <time>2017-09-23T13:21:32Z</time>
      </trkpt>
      <trkpt lat="46.24827" lon="6.71453">
        <ele>1342</ele>
        <time>2017-09-23T13:21:50Z</time>
      </trkpt>
      <trkpt lat="46.24838" lon="6.71474">
        <ele>1343</ele>
        <time>2017-09-23T13:22:14Z</time>
      </trkpt>
      <trkpt lat="46.24851" lon="6.71493">
        <ele>1341</ele>
        <time>2017-09-23T13:22:32Z</time>
      </trkpt>
      <trkpt lat="46.24864" lon="6.71513">
        <ele>1327</ele>
        <time>2017-09-23T13:22:49Z</time>
      </trkpt>
      <trkpt lat="46.24879" lon="6.7153">
        <ele>1326</ele>
        <time>2017-09-23T13:23:10Z</time>
      </trkpt>
      <trkpt lat="46.24863" lon="6.71538">
        <ele>1324</ele>
      </trkpt>
      <trkpt lat="46.24845" lon="6.7154">
        <ele>1322</ele>
        <time>2017-09-23T13:24:00Z</time>
      </trkpt>
      <trkpt lat="46.24827" lon="6.71547">
        <ele>1314</ele>
        <time>2017-09-23T13:24:23Z</time>
      </trkpt>
      <trkpt lat="46.24808" lon="6.71549">
        <ele>1313</ele>
        <time>2017-09-23T13:24:44Z</time>
      </trkpt>
      <trkpt lat="46.2479" lon="6.71543">
        <ele>1313</ele>
        <time>2017-09-23T13:25:15Z</time>
      </trkpt>
      <trkpt lat="46.24776" lon="6.71543">
        <ele>1313</ele>
      </trkpt>
      <trkpt lat="46.24766" lon="6.7155">
        <ele>1310</ele>
      </trkpt>
      <trkpt lat="46.24752" lon="6.71562">
        <ele>1305</ele>
      </trkpt>
      <trkpt lat="46.24739" lon="6.71574">
        <ele>1297</ele>
        <time>2017-09-23T13:26:33Z</time>
      </trkpt>
      <trkpt lat="46.24722" lon="6.71584">
        <ele>1280</ele>
        <time>2017-09-23T13:27:00Z</time>
      </trkpt>
      <trkpt lat="46.24704" lon="6.71592">
        <ele>1277</ele>
        <time>2017-09-23T13:27:39Z</time>
      </trkpt>
      <trkpt lat="46.24685" lon="6.71598">
        <ele>1277</ele>
        <time>2017-09-23T13:28:02Z</time>
      </trkpt>
      <trkpt lat="46.24667" lon="6.71599">
        <ele>1278</ele>
        <time>2017-09-23T13:28:14Z</time>
      </trkpt>
      <trkpt lat="46.2465" lon="6.71611">
        <ele>1274</ele>
        <time>2017-09-23T13:28:39Z</time>
      </trkpt>
      <trkpt lat="46.24633" lon="6.71618">
        <ele>1273</ele>
        <time>2017-09-23T13:29:08Z</time>
      </trkpt>
      <trkpt lat="46.24623" lon="6.71641">
        <ele>1270</ele>
        <time>2017-09-23T13:29:47Z</time>
      </trkpt>
      <trkpt lat="46.24629" lon="6.71665">
        <ele>1267</ele>
      </trkpt>
      <trkpt lat="46.24638" lon="6.71684">
        <ele>1253</ele>
      </trkpt>
      <trkpt lat="46.24655" lon="6.717">
        <ele>1251</ele>
      </trkpt>
      <trkpt lat="46.24667" lon="6.71713">
        <ele>1243</ele>
        <time>2017-09-23T13:31:26Z</time>
      </trkpt>
      <trkpt lat="46.24682" lon="6.71731">
        <ele>1239</ele>
      </trkpt>
      <trkpt lat="46.24696" lon="6.71742">
        <ele>1238</ele>
        <time>2017-09-23T13:32:11Z</time>
      </trkpt>
      <trkpt lat="46.24712" lon="6.71754">
        <ele>1225</ele>
        <time>2017-09-23T13:32:37Z</time>
      </trkpt>
      <trkpt lat="46.24726" lon="6.71772">
        <ele>1223</ele>
        <time>2017-09-23T13:32:57Z</time>
      </trkpt>
      <trkpt lat="46.2474" lon="6.71789">
        <ele>1221</ele>
        <time>2017-09-23T13:33:20Z</time>
      </trkpt>
      <trkpt lat="46.24755" lon="6.71803">
        <ele>1215</ele>
        <time>2017-09-23T13:33:46Z</time>
      </trkpt>
      <trkpt lat="46.2477" lon="6.7182">
        <ele>1213</ele>
        <time>2017-09-23T13:34:02Z</time>
      </trkpt>
      <trkpt lat="46.24788" lon="6.71826">
        <ele>1213</ele>
        <time>2017-09-23T13:34:15Z</time>
      </trkpt>
      <trkpt lat="46.24795" lon="6.71829">
        <ele>1212</ele>
      </trkpt>
      <trkpt lat="46.24795" lon="6.71851">
        <ele>1202</ele>
        <time>2017-09-23T13:34:32Z</time>
      </trkpt>
      <trkpt lat="46.24801" lon="6.71877">
        <ele>1200</ele>
        <time>2017-09-23T13:34:46Z</time>
      </trkpt>
      <trkpt lat="46.24809" lon="6.71902">
        <ele>1198</ele>
        <time>2017-09-23T13:35:01Z</time>
      </trkpt>
      <trkpt lat="46.24809" lon="6.71929">
        <ele>1194</ele>
      </trkpt>
      <trkpt lat="46.24807" lon="6.71957">
        <ele>1193</ele>
      </trkpt>
      <trkpt lat="46.24803" lon="6.71984">
        <ele>1193</ele>
      </trkpt>
      <trkpt lat="46.24797" lon="6.7201">
        <ele>1189</ele>
        <time>2017-09-23T13:35:57Z</time>
      </trkpt>
      <trkpt lat="46.24796" lon="6.72036">
        <ele>1188</ele>
        <time>2017-09-23T13:36:14Z</time>
      </trkpt>
      <trkpt lat="46.24791" lon="6.72062">
        <ele>1188</ele>
        <time>2017-09-23T13:36:29Z</time>
      </trkpt>
      <trkpt lat="46.24787" lon="6.72089">
        <ele>1185</ele>
        <time>2017-09-23T13:36:45Z</time>
      </trkpt>
      <trkpt lat="46.24783" lon="6.72115">
        <ele>1185</ele>
        <time>2017-09-23T13:37:01Z</time>
      </trkpt>
      <trkpt lat="46.24791" lon="6.72138">
        <ele>1184</ele>
        <time>2017-09-23T13:37:20Z</time>
      </trkpt>
      <trkpt lat="46.24799" lon="6.72162">
        <ele>1183</ele>
        <time>2017-09-23T13:37:39Z</time>
      </trkpt>
      <trkpt lat="46.24807" lon="6.72186">
        <ele>1182</ele>
        <time>2017-09-23T13:37:55Z</time>
      </trkpt>
      <trkpt lat="46.2482" lon="6.72204">
        <ele>1181</ele>
        <time>2017-09-23T13:38:18Z</time>
      </trkpt>
      <trkpt lat="46.24838" lon="6.72213">
        <ele>1166</ele>
        <time>2017-09-23T13:38:34Z</time>
      </trkpt>
      <trkpt lat="46.24856" lon="6.72222">
        <ele>1165</ele>
        <time>2017-09-23T13:38:51Z</time>
      </trkpt>
      <trkpt lat="46.24874" lon="6.72222">
        <ele>1163</ele>
        <time>2017-09-23T13:39:15Z</time>
      </trkpt>
      <trkpt lat="46.24893" lon="6.7222">
        <ele>1161</ele>
        <time>2017-09-23T13:39:33Z</time>
      </trkpt>
      <trkpt lat="46.24909" lon="6.72207">
        <ele>1161</ele>
        <time>2017-09-23T13:39:55Z</time>
      </trkpt>
      <trkpt lat="46.24925" lon="6.72195">
        <ele>1152</ele>
        <time>2017-09-23T13:40:18Z</time>
      </trkpt>
      <trkpt lat="46.24943" lon="6.72191">
        <ele>1151</ele>
        <time>2017-09-23T13:40:33Z</time>
      </trkpt>
      <trkpt lat="46.24962" lon="6.72188">
        <ele>1149</ele>
        <time>2017-09-23T13:40:55Z</time>
      </trkpt>
      <trkpt lat="46.2498" lon="6.72185">
        <ele>1147</ele>
        <time>2017-09-23T13:41:19Z</time>
      </trkpt>
      <trkpt lat="46.25" lon="6.7218">
        <ele>1144</ele>
      </trkpt>
      <trkpt lat="46.25016" lon="6.72173">
        <ele>1140</ele>
        <time>2017-09-23T13:53:05Z</time>
      </trkpt>
      <trkpt lat="46.25034" lon="6.72165">
        <ele>1139</ele>
      </trkpt>
      <trkpt lat="46.25042" lon="6.72161">
        <ele>1139</ele>
      </trkpt>
    </trkseg>
  </trk>
</gpx>